Time;durP1;ratioP1;P1;durP2;ratioP2;P2;SDS_P1;SDS_P2;PMS_P1;PMS_P2;Temp;Humidity;BMP_temperature;BMP_pressure;BME280_temperature;BME280_humidity;BME280_pressure;Samples;Min_cycle;Max_cycle;Signal;HPM_P1;HPM_P2
2021/12/23 00:01:12;;;;;;;20.83;11.75;;;;;;;;;;5025825;28;20085;-42
2021/12/23 00:03:38;;;;;;;18.33;11.80;;;;;;;;;;5025975;28;20053;-44
2021/12/23 00:06:04;;;;;;;18.23;11.63;;;;;;;;;;5025643;28;20045;-42
2021/12/23 00:08:33;;;;;;;17.02;11.25;;;;;;;;;;5025372;28;20199;-40
2021/12/23 00:10:59;;;;;;;20.40;11.45;;;;;;;;;;5025313;28;20049;-41
2021/12/23 00:13:26;;;;;;;16.38;11.30;;;;;;;;;;5009044;28;20208;-40
2021/12/23 00:23:48;;;;;;;15.23;10.82;;;;;;;;;;5087598;28;20527;-42
2021/12/23 00:26:14;;;;;;;17.80;11.40;;;;;;;;;;5087605;28;20099;-40
2021/12/23 00:28:40;;;;;;;15.82;10.32;;;;;;;;;;5087614;28;20044;-41
2021/12/23 00:31:07;;;;;;;19.35;11.70;;;;;;;;;;5087909;28;20562;-42
2021/12/23 00:33:36;;;;;;;18.98;11.52;;;;;;;;;;5087565;28;20515;-43
2021/12/23 00:36:03;;;;;;;21.50;12.25;;;;;;;;;;5087771;28;20055;-41
2021/12/23 00:38:37;;;;;;;15.45;10.93;;;;;;;;;;5087834;28;20051;-41
2021/12/23 00:41:04;;;;;;;21.88;11.52;;;;;;;;;;5087383;28;20044;-42
2021/12/23 00:43:31;;;;;;;18.65;12.00;;;;;;;;;;5087830;28;20135;-40
2021/12/23 00:45:57;;;;;;;17.80;11.27;;;;;;;;;;5087673;28;20096;-44
2021/12/23 00:48:23;;;;;;;18.63;12.23;;;;;;;;;;5087579;28;20071;-42
2021/12/23 00:50:52;;;;;;;17.13;11.25;;;;;;;;;;5087341;28;20048;-41
2021/12/23 00:53:20;;;;;;;18.70;13.05;;;;;;;;;;5086107;28;20551;-41
2021/12/23 00:55:50;;;;;;;18.45;12.23;;;;;;;;;;5087590;28;20051;-41
2021/12/23 00:58:17;;;;;;;16.45;11.38;;;;;;;;;;5087402;28;20047;-42
2021/12/23 01:00:44;;;;;;;17.83;12.55;;;;;;;;;;5087224;28;20047;-41
2021/12/23 01:03:10;;;;;;;18.92;12.88;;;;;;;;;;5088033;28;20518;-45
2021/12/23 01:05:37;;;;;;;20.27;12.40;;;;;;;;;;5088093;28;20048;-42
2021/12/23 01:08:04;;;;;;;19.60;12.10;;;;;;;;;;5087960;28;20036;-42
2021/12/23 01:10:30;;;;;;;17.42;11.18;;;;;;;;;;5088354;28;20037;-40
2021/12/23 01:13:02;;;;;;;16.85;11.07;;;;;;;;;;5087870;28;20040;-42
2021/12/23 01:18:06;;;;;;;23.90;12.60;;;;;;;;;;5087791;28;20047;-41
2021/12/23 01:20:35;;;;;;;20.17;11.35;;;;;;;;;;5088000;28;20593;-40
2021/12/23 01:23:03;;;;;;;17.75;11.68;;;;;;;;;;5088137;28;20044;-41
2021/12/23 01:25:30;;;;;;;17.30;11.82;;;;;;;;;;5087976;28;20040;-42
2021/12/23 01:27:56;;;;;;;19.40;11.65;;;;;;;;;;5087633;28;20610;-41
2021/12/23 01:30:24;;;;;;;22.17;12.65;;;;;;;;;;5087850;28;20067;-43
2021/12/23 01:32:51;;;;;;;20.33;12.10;;;;;;;;;;5087171;28;20492;-42
2021/12/23 01:38:39;;;;;;;18.80;12.48;;;;;;;;;;5065285;28;20475;-40
2021/12/23 01:41:05;;;;;;;18.50;11.75;;;;;;;;;;5072334;28;20040;-41
2021/12/23 01:43:32;;;;;;;20.25;12.25;;;;;;;;;;5066625;28;20098;-40
2021/12/23 01:45:58;;;;;;;19.42;13.65;;;;;;;;;;5066362;28;20049;-41
2021/12/23 01:48:24;;;;;;;18.13;11.30;;;;;;;;;;5066773;28;20054;-40
2021/12/23 01:50:50;;;;;;;18.40;12.18;;;;;;;;;;5066454;28;20485;-41
2021/12/23 01:53:18;;;;;;;21.48;12.20;;;;;;;;;;5069325;28;20118;-41
2021/12/23 01:55:46;;;;;;;18.25;11.90;;;;;;;;;;5070168;28;20098;-41
2021/12/23 01:58:13;;;;;;;18.30;12.30;;;;;;;;;;5069937;28;20551;-41
2021/12/23 02:00:41;;;;;;;18.42;12.30;;;;;;;;;;5070160;28;20055;-40
2021/12/23 02:03:07;;;;;;;18.00;11.93;;;;;;;;;;5070138;28;20049;-40
2021/12/23 02:05:33;;;;;;;20.65;11.88;;;;;;;;;;5070049;28;20098;-40
2021/12/23 02:08:00;;;;;;;18.92;11.95;;;;;;;;;;5069892;28;20044;-41
2021/12/23 02:10:27;;;;;;;18.30;11.65;;;;;;;;;;5070211;28;20256;-40
2021/12/23 02:12:53;;;;;;;19.85;11.80;;;;;;;;;;5069921;28;20044;-41
2021/12/23 02:15:20;;;;;;;23.02;12.85;;;;;;;;;;5070016;28;20122;-39
2021/12/23 02:17:47;;;;;;;17.73;11.07;;;;;;;;;;5070361;28;20040;-40
2021/12/23 02:20:15;;;;;;;20.92;12.05;;;;;;;;;;5069169;28;20123;-41
2021/12/23 02:22:41;;;;;;;18.17;11.93;;;;;;;;;;5070434;28;20043;-40
2021/12/23 02:25:08;;;;;;;20.10;13.07;;;;;;;;;;5070360;28;20051;-41
2021/12/23 02:27:36;;;;;;;21.50;12.80;;;;;;;;;;5070717;28;20440;-42
2021/12/23 02:30:05;;;;;;;20.35;12.85;;;;;;;;;;5069179;28;20105;-43
2021/12/23 02:32:31;;;;;;;18.48;12.10;;;;;;;;;;5070278;28;20132;-42
2021/12/23 02:34:57;;;;;;;20.13;11.75;;;;;;;;;;5070024;28;20151;-40
2021/12/23 02:37:23;;;;;;;20.83;12.88;;;;;;;;;;5070072;28;20047;-40
2021/12/23 02:39:49;;;;;;;22.40;13.60;;;;;;;;;;5069898;28;20048;-41
2021/12/23 02:42:17;;;;;;;16.83;9.93;;;;;;;;;;5069862;28;20052;-40
2021/12/23 02:44:43;;;;;;;19.08;12.38;;;;;;;;;;5069776;28;20040;-41
2021/12/23 02:47:09;;;;;;;18.15;12.55;;;;;;;;;;5069495;28;20077;-40
2021/12/23 02:49:35;;;;;;;21.17;13.10;;;;;;;;;;5069391;28;20048;-41
2021/12/23 02:52:01;;;;;;;20.67;12.98;;;;;;;;;;5068846;28;20052;-40
2021/12/23 02:54:28;;;;;;;22.83;13.65;;;;;;;;;;5069188;28;20040;-41
2021/12/23 02:56:54;;;;;;;18.05;12.25;;;;;;;;;;5068946;28;20040;-42
2021/12/23 02:59:20;;;;;;;19.92;13.75;;;;;;;;;;5069019;28;20056;-41
2021/12/23 03:01:46;;;;;;;19.25;12.80;;;;;;;;;;5068733;28;20048;-40
2021/12/23 03:04:12;;;;;;;19.83;12.63;;;;;;;;;;5068659;28;20096;-40
2021/12/23 03:06:38;;;;;;;18.85;12.77;;;;;;;;;;5067417;28;20091;-43
2021/12/23 03:09:05;;;;;;;21.38;13.40;;;;;;;;;;5068994;28;20044;-40
2021/12/23 03:11:32;;;;;;;17.67;12.70;;;;;;;;;;5068947;28;20040;-40
2021/12/23 03:14:00;;;;;;;21.73;12.45;;;;;;;;;;5068723;28;20489;-40
2021/12/23 03:16:29;;;;;;;21.05;13.60;;;;;;;;;;5067764;28;20123;-41
2021/12/23 03:18:55;;;;;;;20.75;13.05;;;;;;;;;;5068263;28;20400;-40
2021/12/23 03:21:21;;;;;;;21.52;12.52;;;;;;;;;;5068239;28;20135;-40
2021/12/23 03:23:47;;;;;;;22.45;12.55;;;;;;;;;;5068515;28;20063;-40
2021/12/23 03:26:13;;;;;;;18.77;13.10;;;;;;;;;;5068548;28;20051;-40
2021/12/23 03:28:39;;;;;;;21.05;13.85;;;;;;;;;;5068225;28;20489;-40
2021/12/23 03:31:07;;;;;;;21.00;13.93;;;;;;;;;;5068238;28;20533;-41
2021/12/23 03:33:34;;;;;;;21.48;13.93;;;;;;;;;;5068266;28;20041;-40
2021/12/23 03:36:00;;;;;;;19.55;12.23;;;;;;;;;;5068583;28;20150;-43
2021/12/23 03:38:26;;;;;;;22.23;13.65;;;;;;;;;;5069125;28;20070;-41
2021/12/23 03:40:52;;;;;;;22.52;13.98;;;;;;;;;;5068592;28;20505;-40
2021/12/23 03:43:19;;;;;;;19.25;13.63;;;;;;;;;;5068880;28;20041;-40
2021/12/23 03:45:46;;;;;;;22.88;13.57;;;;;;;;;;5066991;28;20053;-41
2021/12/23 03:48:14;;;;;;;21.67;14.00;;;;;;;;;;5068839;28;20052;-42
2021/12/23 03:50:42;;;;;;;21.02;13.10;;;;;;;;;;5068978;28;20045;-41
2021/12/23 03:53:08;;;;;;;22.58;12.90;;;;;;;;;;5068679;28;20040;-42
2021/12/23 03:55:34;;;;;;;22.85;14.70;;;;;;;;;;5068612;28;20132;-39
2021/12/23 03:58:02;;;;;;;20.77;13.23;;;;;;;;;;5068116;28;20554;-42
2021/12/23 04:00:28;;;;;;;24.08;13.93;;;;;;;;;;5068553;28;20199;-40
2021/12/23 04:02:55;;;;;;;23.20;14.88;;;;;;;;;;5068215;28;20122;-40
2021/12/23 04:05:21;;;;;;;22.98;13.35;;;;;;;;;;5068729;28;20048;-40
2021/12/23 04:07:50;;;;;;;23.60;14.32;;;;;;;;;;5068574;28;20099;-40
2021/12/23 04:10:17;;;;;;;26.08;14.80;;;;;;;;;;5068252;28;20050;-40
2021/12/23 04:12:43;;;;;;;21.08;14.30;;;;;;;;;;5068394;28;20052;-42
2021/12/23 04:15:11;;;;;;;21.80;13.95;;;;;;;;;;5067318;28;20051;-41
2021/12/23 04:17:38;;;;;;;25.63;15.38;;;;;;;;;;5067683;28;20040;-41
2021/12/23 04:20:20;;;;;;;24.92;15.05;;;;;;;;;;5067438;28;20041;-40
2021/12/23 04:22:46;;;;;;;;;;;;;;;;;;5067119;28;20049;-40
2021/12/23 04:25:14;;;;;;;22.45;14.07;;;;;;;;;;5067418;28;19928;-41
2021/12/23 04:27:41;;;;;;;23.50;14.50;;;;;;;;;;5067428;28;20584;-39
2021/12/23 04:30:08;;;;;;;22.55;14.13;;;;;;;;;;5067252;28;20512;-41
2021/12/23 04:32:34;;;;;;;25.50;13.15;;;;;;;;;;5067187;28;20488;-40
2021/12/23 04:35:00;;;;;;;21.17;13.15;;;;;;;;;;5067185;28;20109;-41
2021/12/23 04:37:26;;;;;;;23.42;13.75;;;;;;;;;;5067363;28;20132;-41
2021/12/23 04:39:54;;;;;;;22.52;14.55;;;;;;;;;;5066883;28;20095;-40
2021/12/23 04:42:20;;;;;;;24.45;15.27;;;;;;;;;;5067062;28;20055;-40
2021/12/23 04:44:46;;;;;;;24.20;14.55;;;;;;;;;;5066435;28;20087;-40
2021/12/23 04:47:12;;;;;;;22.73;13.95;;;;;;;;;;5065799;28;20386;-41
2021/12/23 04:49:40;;;;;;;23.13;14.90;;;;;;;;;;5067163;28;20064;-40
2021/12/23 04:52:06;;;;;;;22.20;14.38;;;;;;;;;;5066558;28;20079;-40
2021/12/23 04:54:32;;;;;;;23.08;13.57;;;;;;;;;;5067555;28;20066;-42
2021/12/23 04:56:58;;;;;;;24.98;15.43;;;;;;;;;;5067215;28;20076;-40
2021/12/23 04:59:27;;;;;;;21.73;14.18;;;;;;;;;;5067907;28;20051;-41
2021/12/23 05:01:53;;;;;;;20.88;13.23;;;;;;;;;;5067150;28;20068;-41
2021/12/23 05:04:19;;;;;;;22.90;13.88;;;;;;;;;;5067793;28;20055;-41
2021/12/23 05:06:45;;;;;;;22.27;14.25;;;;;;;;;;5067671;28;20051;-42
2021/12/23 05:09:11;;;;;;;22.17;14.20;;;;;;;;;;5067682;28;20056;-41
2021/12/23 05:11:37;;;;;;;21.85;14.20;;;;;;;;;;5067658;28;20097;-41
2021/12/23 05:14:03;;;;;;;21.60;14.93;;;;;;;;;;5067565;28;20508;-41
2021/12/23 05:16:29;;;;;;;23.73;13.65;;;;;;;;;;5067572;28;20497;-40
2021/12/23 05:18:55;;;;;;;23.85;14.57;;;;;;;;;;5067238;28;20044;-41
2021/12/23 05:21:21;;;;;;;19.65;13.18;;;;;;;;;;5067271;28;20599;-42
2021/12/23 05:23:49;;;;;;;23.08;13.85;;;;;;;;;;5067646;28;20053;-40
2021/12/23 05:26:16;;;;;;;21.02;14.52;;;;;;;;;;5068291;28;20036;-41
2021/12/23 05:28:42;;;;;;;21.40;14.77;;;;;;;;;;5071283;28;20135;-41
2021/12/23 05:31:09;;;;;;;25.88;15.25;;;;;;;;;;5070400;28;20489;-42
2021/12/23 05:33:36;;;;;;;23.73;13.85;;;;;;;;;;5070405;28;20080;-41
2021/12/23 05:36:02;;;;;;;25.17;15.27;;;;;;;;;;5068764;28;20052;-41
2021/12/23 05:38:28;;;;;;;23.85;15.25;;;;;;;;;;5070264;28;20037;-40
2021/12/23 05:40:55;;;;;;;23.40;14.20;;;;;;;;;;5070176;28;20136;-40
2021/12/23 05:43:21;;;;;;;23.35;15.38;;;;;;;;;;5070862;28;20052;-40
2021/12/23 05:45:47;;;;;;;23.70;15.50;;;;;;;;;;5070010;28;20722;-40
2021/12/23 05:48:13;;;;;;;24.75;14.93;;;;;;;;;;5068640;28;20471;-40
2021/12/23 05:50:39;;;;;;;21.80;15.18;;;;;;;;;;5068963;28;20059;-41
2021/12/23 05:53:05;;;;;;;21.92;14.30;;;;;;;;;;5069944;28;20242;-40
2021/12/23 05:55:31;;;;;;;24.38;15.68;;;;;;;;;;5069837;28;20044;-40
2021/12/23 05:57:58;;;;;;;24.48;15.20;;;;;;;;;;5069761;28;20044;-41
2021/12/23 06:00:28;;;;;;;22.75;14.63;;;;;;;;;;5069875;28;20051;-39
2021/12/23 06:02:56;;;;;;;24.02;15.05;;;;;;;;;;5069523;28;20071;-42
2021/12/23 06:05:23;;;;;;;22.00;13.63;;;;;;;;;;5069945;28;20117;-40
2021/12/23 06:07:49;;;;;;;23.02;15.05;;;;;;;;;;5068405;28;20040;-40
2021/12/23 06:10:16;;;;;;;23.63;15.68;;;;;;;;;;5068554;28;20045;-41
2021/12/23 06:12:42;;;;;;;25.15;15.68;;;;;;;;;;5069879;28;20544;-40
2021/12/23 06:15:09;;;;;;;23.42;15.27;;;;;;;;;;5069732;28;20106;-40
2021/12/23 06:17:37;;;;;;;24.98;16.10;;;;;;;;;;5069483;28;20548;-40
2021/12/23 06:20:05;;;;;;;27.77;16.00;;;;;;;;;;5069636;28;20059;-42
2021/12/23 06:22:34;;;;;;;25.85;16.27;;;;;;;;;;5069497;28;20036;-40
2021/12/23 06:25:00;;;;;;;24.25;16.33;;;;;;;;;;5069773;28;20076;-41
2021/12/23 06:27:27;;;;;;;27.08;16.80;;;;;;;;;;5069698;28;20043;-41
2021/12/23 06:29:53;;;;;;;29.08;17.70;;;;;;;;;;5069608;28;20048;-41
2021/12/23 06:32:19;;;;;;;26.63;15.75;;;;;;;;;;5069375;28;20041;-41
2021/12/23 06:34:45;;;;;;;25.17;15.60;;;;;;;;;;5069862;28;20131;-40
2021/12/23 06:37:11;;;;;;;25.35;16.30;;;;;;;;;;5069120;28;20048;-42
2021/12/23 06:39:38;;;;;;;21.92;14.68;;;;;;;;;;5069848;28;20448;-40
2021/12/23 06:42:06;;;;;;;26.20;15.85;;;;;;;;;;5069776;28;20080;-40
2021/12/23 06:44:32;;;;;;;26.10;16.20;;;;;;;;;;5070257;28;20083;-43
2021/12/23 06:46:58;;;;;;;27.02;16.25;;;;;;;;;;5070101;28;20105;-40
2021/12/23 06:49:26;;;;;;;22.13;15.38;;;;;;;;;;5070054;28;20063;-41
2021/12/23 06:51:54;;;;;;;25.75;16.42;;;;;;;;;;5069194;28;20478;-40
2021/12/23 06:54:20;;;;;;;24.08;15.05;;;;;;;;;;5069939;28;20036;-42
2021/12/23 06:56:47;;;;;;;27.65;16.70;;;;;;;;;;5070277;28;20123;-41
2021/12/23 06:59:15;;;;;;;23.73;17.23;;;;;;;;;;5069863;28;20053;-41
2021/12/23 07:01:41;;;;;;;23.20;15.57;;;;;;;;;;5069205;28;20143;-41
2021/12/23 07:04:17;;;;;;;24.90;15.73;;;;;;;;;;5068372;28;20158;-40
2021/12/23 07:06:48;;;;;;;24.77;15.55;;;;;;;;;;5082653;28;20040;-41
2021/12/23 07:09:15;;;;;;;22.38;13.98;;;;;;;;;;5090121;28;20048;-40
2021/12/23 07:11:41;;;;;;;26.17;15.50;;;;;;;;;;5089993;28;20446;-42
2021/12/23 07:14:09;;;;;;;27.13;17.25;;;;;;;;;;5089227;28;20052;-40
2021/12/23 07:16:38;;;;;;;26.13;15.43;;;;;;;;;;5088989;28;20044;-43
2021/12/23 07:19:04;;;;;;;26.27;15.88;;;;;;;;;;5088934;28;20047;-41
2021/12/23 07:21:30;;;;;;;25.20;16.45;;;;;;;;;;5089120;28;20035;-42
2021/12/23 07:23:56;;;;;;;23.60;15.05;;;;;;;;;;5088978;28;20123;-43
2021/12/23 07:26:22;;;;;;;28.25;16.80;;;;;;;;;;5088463;28;20119;-42
2021/12/23 07:28:48;;;;;;;26.77;15.32;;;;;;;;;;5089003;28;20138;-40
2021/12/23 07:31:14;;;;;;;26.35;16.52;;;;;;;;;;5088518;28;20036;-41
2021/12/23 07:33:40;;;;;;;28.98;18.90;;;;;;;;;;5088546;28;20062;-41
2021/12/23 07:36:06;;;;;;;26.73;16.80;;;;;;;;;;5088781;28;20040;-40
2021/12/23 07:38:36;;;;;;;24.08;16.23;;;;;;;;;;5088748;28;20484;-42
2021/12/23 07:41:02;;;;;;;27.83;17.95;;;;;;;;;;5088890;28;20048;-42
2021/12/23 07:43:44;;;;;;;25.55;15.75;;;;;;;;;;5088540;28;20378;-41
2021/12/23 07:46:11;;;;;;;29.45;16.80;;;;;;;;;;5088875;28;20075;-40
2021/12/23 07:48:37;;;;;;;24.92;17.00;;;;;;;;;;5088608;28;20060;-41
2021/12/23 07:51:04;;;;;;;26.05;17.35;;;0.00;99.90;;;;;;5087530;28;20552;-42
2021/12/23 07:53:32;;;;;;;28.30;18.00;;;;;;;;;;5088485;28;20518;-42
2021/12/23 07:55:58;;;;;;;29.50;19.15;;;;;;;;;;5088717;28;20214;-42
2021/12/23 07:58:24;;;;;;;26.90;17.33;;;;;;;;;;5089045;28;20054;-42
2021/12/23 08:00:50;;;;;;;28.65;18.95;;;;;;;;;;5089526;28;20048;-41
2021/12/23 08:03:16;;;;;;;34.03;19.45;;;;;;;;;;5088955;28;20044;-41
2021/12/23 08:05:44;;;;;;;27.48;18.52;;;-0.20;99.90;;;;;;5089350;28;20059;-40
2021/12/23 08:08:10;;;;;;;27.52;18.65;;;;;;;;;;5089017;28;20105;-40
2021/12/23 08:10:36;;;;;;;31.60;19.92;;;;;;;;;;5087906;28;20409;-41
2021/12/23 08:13:02;;;;;;;28.42;18.38;;;;;;;;;;5088939;28;20074;-41
2021/12/23 08:15:28;;;;;;;24.88;16.65;;;;;;;;;;5089019;28;20047;-40
2021/12/23 08:17:54;;;;;;;30.13;18.92;;;;;;;;;;5089096;28;20065;-43
2021/12/23 08:20:23;;;;;;;31.95;19.35;;;;;;;;;;5088885;28;20040;-41
2021/12/23 08:22:49;;;;;;;26.88;18.42;;;;;;;;;;5088991;28;20043;-41
2021/12/23 08:25:15;;;;;;;27.77;18.23;;;;;;;;;;5088114;28;20083;-40
2021/12/23 08:27:43;;;;;;;34.15;20.27;;;;;;;;;;5087918;28;20823;-42
2021/12/23 08:30:12;;;;;;;30.05;19.42;;;;;;;;;;5087676;28;20162;-41
2021/12/23 08:32:38;;;;;;;29.02;19.13;;;0.00;99.90;;;;;;5087614;28;20052;-43
2021/12/23 08:35:05;;;;;;;29.60;18.83;;;;;;;;;;5087504;28;20051;-41
2021/12/23 08:37:33;;;;;;;30.73;19.20;;;;;;;;;;5087445;28;20169;-40
2021/12/23 08:39:59;;;;;;;31.92;20.20;;;;;;;;;;5086420;28;20044;-40
2021/12/23 08:42:25;;;;;;;33.40;20.05;;;;;;;;;;5085917;28;20507;-41
2021/12/23 08:44:51;;;;;;;33.10;20.00;;;;;;;;;;5087623;28;20654;-40
2021/12/23 08:47:18;;;;;;;32.55;19.27;;;;;;;;;;5087504;28;20036;-40
2021/12/23 08:49:45;;;;;;;30.60;20.88;;;;;;;;;;5087177;28;20684;-40
2021/12/23 08:52:11;;;;;;;32.42;20.00;;;;;;;;;;5083650;28;20595;-40
2021/12/23 08:54:37;;;;;;;32.78;21.25;;;;;;;;;;5087155;28;20617;-41
2021/12/23 08:57:05;;;;;;;33.85;20.27;;;;;;;;;;5087050;28;20085;-41
2021/12/23 08:59:31;;;;;;;33.17;22.05;;;;;;;;;;5087376;28;20055;-40
2021/12/23 09:01:57;;;;;;;33.15;21.50;;;;;;;;;;5092078;28;20044;-42
2021/12/23 09:04:23;;;;;;;35.03;21.30;;;;;;;;;;5092308;28;20052;-43
2021/12/23 09:06:50;;;;;;;35.40;22.25;;;;;;;;;;5094256;28;20075;-41
2021/12/23 09:09:17;;;;;;;36.08;22.70;;;;;;;;;;5093527;28;20539;-41
2021/12/23 09:11:44;;;;;;;36.13;22.30;;;;;;;;;;5094142;28;20048;-40
2021/12/23 09:14:10;;;;;;;38.63;23.85;;;;;;;;;;5093868;28;20048;-40
2021/12/23 09:16:39;;;;;;;35.58;21.95;;;0.00;99.90;;;;;;5093622;28;20660;-40
2021/12/23 09:19:05;;;;;;;37.33;23.40;;;0.00;99.90;;;;;;5093412;28;20500;-40
2021/12/23 09:21:32;;;;;;;36.58;24.13;;;;;;;;;;5093997;28;20050;-42
2021/12/23 09:24:00;;;;;;;39.90;25.80;;;;;;;;;;5094259;28;20098;-42
2021/12/23 09:26:27;;;;;;;38.90;25.75;;;;;;;;;;5094738;28;20498;-45
2021/12/23 09:34:07;;;;;;;44.33;28.25;;;;;;;;;;5094180;28;20084;-46
2021/12/23 09:36:33;;;;;;;46.53;28.02;;;;;;;;;;5094155;28;20075;-49
2021/12/23 09:38:59;;;;;;;44.22;27.83;;;;;;;;;;5093151;28;20131;-48
2021/12/23 09:41:26;;;;;;;51.03;30.98;;;;;;;;;;5094016;28;20044;-48
2021/12/23 09:43:52;;;;;;;49.95;29.50;;;;;;;;;;5094262;28;20520;-46
2021/12/23 09:46:21;;;;;;;55.85;30.30;;;;;;;;;;5093998;28;20101;-44
2021/12/23 09:48:48;;;;;;;50.72;30.67;;;;;;;;;;5094075;28;20060;-43
2021/12/23 09:51:16;;;;;;;53.55;31.95;;;;;;;;;;5094133;28;20047;-49
2021/12/23 09:53:44;;;;;;;58.92;32.55;;;;;;;;;;5094318;28;20055;-49
2021/12/23 09:56:10;;;;;;;52.58;28.80;;;;;;;;;;5093764;28;20069;-46
2021/12/23 09:58:37;;;;;;;54.33;31.25;;;;;;;;;;5093423;28;20043;-47
2021/12/23 10:01:03;;;;;;;65.43;31.60;;;;;;;;;;5093404;28;20583;-50
2021/12/23 10:03:29;;;;;;;227.40;55.22;;;;;;;;;;5093052;28;20056;-47
2021/12/23 10:05:59;;;;;;;83.95;35.33;;;;;;;;;;5093586;28;20044;-50
2021/12/23 10:08:26;;;;;;;69.47;36.00;;;;;;;;;;5086246;28;20123;-49
2021/12/23 10:11:01;;;;;;;62.45;33.00;;;;;;;;;;5073029;28;20072;-50
2021/12/23 10:28:54;;;;;;;63.42;35.40;;;;;;;;;;5069583;28;20413;-48
2021/12/23 10:38:42;;;;;;;95.57;39.67;;;;;;;;;;5069265;28;20074;-46
2021/12/23 10:41:10;;;;;;;61.63;32.00;;;;;;;;;;5069073;28;20044;-49
2021/12/23 10:43:38;;;;;;;58.92;32.35;;;;;;;;;;5070326;28;20052;-48
2021/12/23 10:46:07;;;;;;;74.47;35.92;;;;;;;;;;5069578;28;20091;-48
2021/12/23 10:48:43;;;;;;;57.95;30.45;;;;;;;;;;5070158;28;20045;-48
2021/12/23 10:51:15;;;;;;;73.53;35.47;;;;;;;;;;5069764;28;20178;-48
2021/12/23 10:59:09;;;;;;;64.50;31.88;;;;;;;;;;5069693;28;20093;-47
2021/12/23 11:01:38;;;;;;;77.55;36.53;;;;;;;;;;5069506;28;20570;-49
2021/12/23 11:04:06;;;;;;;72.82;34.83;;;;;;;;;;5068163;28;20604;-47
2021/12/23 11:06:57;;;;;;;62.33;34.83;;;;;;;;;;5069929;28;20052;-49
2021/12/23 11:09:44;;;;;;;62.47;31.33;;;;;;;;;;5069399;28;20072;-48
2021/12/23 11:37:57;;;;;;;70.57;32.30;;;;;;;;;;5006118;28;20128;-49
2021/12/23 11:43:25;;;;;;;65.55;34.42;;;;;;;;;;5006181;28;20493;-50
2021/12/23 11:45:51;;;;;;;68.78;31.25;;;;;;;;;;5005652;28;20144;-48
2021/12/23 11:48:17;;;;;;;75.65;35.95;;;0.30;99.90;;;;;;5005848;28;20048;-47
2021/12/23 11:50:55;;;;;;;70.78;33.92;;;;;;;;;;5006065;28;20623;-44
2021/12/23 11:53:25;;;;;;;70.97;35.80;;;;;;;;;;5006109;28;20057;-47
2021/12/23 11:55:51;;;;;;;77.65;36.78;;;;;;;;;;5005848;28;20057;-47
2021/12/23 11:58:21;;;;;;;69.68;34.20;;;;;;;;;;5005629;28;20054;-48
2021/12/23 12:01:00;;;;;;;73.65;36.92;;;;;;;;;;5006598;28;20057;-49
2021/12/23 12:03:26;;;;;;;71.45;35.15;;;;;;;;;;5006093;28;20061;-50
2021/12/23 12:05:52;;;;;;;75.55;36.90;;;;;;;;;;5006397;28;20184;-49
2021/12/23 12:08:23;;;;;;;77.80;37.40;;;0.50;99.90;;;;;;5006546;28;20069;-48
2021/12/23 12:10:50;;;;;;;70.93;32.50;;;;;;;;;;5040458;28;20664;-49
2021/12/23 12:13:17;;;;;;;78.30;38.10;;;;;;;;;;5068345;28;20048;-46
2021/12/23 12:15:48;;;;;;;71.80;37.05;;;;;;;;;;5068674;28;20137;-50
2021/12/23 12:18:24;;;;;;;68.88;34.58;;;;;;;;;;5068346;28;20040;-48
2021/12/23 12:20:59;;;;;;;65.38;31.90;;;0.50;99.90;;;;;;5068625;28;20408;-50
2021/12/23 12:23:32;;;;;;;64.15;30.98;;;;;;;;;;5068446;28;20080;-46
2021/12/23 12:26:06;;;;;;;76.80;37.60;;;0.50;99.90;;;;;;5068504;28;20052;-50
2021/12/23 12:28:32;;;;;;;85.53;40.25;;;;;;;;;;5068037;28;20401;-47
2021/12/23 12:31:02;;;;;;;73.22;35.38;;;;;;;;;;5068212;28;20400;-47
2021/12/23 12:33:28;;;;;;;67.05;32.13;;;;;;;;;;5067356;28;20048;-49
2021/12/23 12:36:08;;;;;;;77.18;36.15;;;;;;;;;;5067343;28;20048;-49
2021/12/23 12:38:34;;;;;;;88.32;38.63;;;;;;;;;;5066984;28;20080;-48
2021/12/23 12:41:03;;;;;;;71.03;34.08;;;;;;;;;;5067254;28;20566;-47
2021/12/23 12:43:49;;;;;;;82.70;37.30;;;;;;;;;;5067121;28;20045;-48
2021/12/23 12:46:39;;;;;;;64.90;31.08;;;0.70;99.90;;;;;;5067135;28;20044;-49
2021/12/23 12:49:16;;;;;;;78.82;36.83;;;;;;;;;;5067052;28;20106;-49
2021/12/23 12:51:43;;;;;;;69.55;35.92;;;;;;;;;;5065575;28;20667;-48
2021/12/23 12:54:12;;;;;;;77.47;36.92;;;;;;;;;;5065626;28;20040;-47
2021/12/23 12:56:55;;;;;;;77.38;36.35;;;0.70;99.90;;;;;;5066908;28;20072;-48
2021/12/23 12:59:24;;;;;;;79.63;37.33;;;;;;;;;;5066820;28;20041;-50
2021/12/23 13:01:52;;;;;;;82.00;39.15;;;0.70;99.90;;;;;;5066942;28;20047;-50
2021/12/23 13:04:23;;;;;;;71.15;35.50;;;;;;;;;;5066463;28;20398;-44
2021/12/23 13:06:51;;;;;;;76.28;37.20;;;0.70;99.90;;;;;;5066758;28;20063;-50
2021/12/23 13:09:21;;;;;;;76.43;36.10;;;;;;;;;;5066957;28;20052;-49
2021/12/23 13:11:49;;;;;;;73.80;35.25;;;;;;;;;;5066968;28;20049;-49
2021/12/23 13:14:20;;;;;;;77.10;36.72;;;;;;;;;;5066914;28;20056;-48
2021/12/23 13:16:55;;;;;;;79.05;37.53;;;0.60;99.90;;;;;;5067582;28;20045;-49
2021/12/23 13:19:21;;;;;;;71.22;35.47;;;;;;;;;;5067453;28;20037;-49
2021/12/23 13:21:56;;;;;;;75.75;35.47;;;0.70;99.90;;;;;;5067712;28;20048;-48
2021/12/23 13:24:23;;;;;;;71.15;35.67;;;;;;;;;;5067444;28;20048;-45
2021/12/23 13:26:54;;;;;;;69.75;34.38;;;;;;;;;;5067560;28;20040;-47
2021/12/23 13:29:27;;;;;;;75.25;33.63;;;0.70;99.90;;;;;;5067551;28;20740;-47
2021/12/23 13:31:53;;;;;;;81.50;39.53;;;;;;;;;;5067643;28;20045;-49
2021/12/23 13:34:24;;;;;;;79.07;36.83;;;0.60;99.90;;;;;;5067646;28;20041;-45
2021/12/23 13:37:08;;;;;;;74.50;35.38;;;0.60;99.90;;;;;;5067816;28;20044;-46
2021/12/23 13:39:38;;;;;;;81.65;39.20;;;0.70;99.90;;;;;;5067163;28;20055;-48
2021/12/23 13:42:07;;;;;;;74.60;36.08;;;;;;;;;;5066756;28;20109;-48
2021/12/23 13:44:38;;;;;;;75.05;34.95;;;;;;;;;;5066751;28;20080;-45
2021/12/23 13:47:04;;;;;;;79.20;36.08;;;;;;;;;;5066897;28;20045;-48
2021/12/23 13:49:36;;;;;;;81.22;36.33;;;0.70;99.90;;;;;;5069965;28;20046;-44
2021/12/23 13:52:03;;;;;;;82.22;35.42;;;;;;;;;;5070708;28;20382;-44
2021/12/23 13:54:34;;;;;;;74.40;35.92;;;;;;;;;;5070188;28;20086;-44
2021/12/23 13:57:00;;;;;;;74.45;36.22;;;;;;;;;;5068963;28;20052;-47
2021/12/23 13:59:28;;;;;;;80.18;37.15;;;0.90;99.90;;;;;;5068581;28;20067;-48
2021/12/23 14:02:05;;;;;;;76.72;36.17;;;0.80;99.90;;;;;;5070498;28;20547;-45
2021/12/23 14:04:32;;;;;;;79.00;36.95;;;;;;;;;;5070257;28;20059;-46
2021/12/23 14:06:59;;;;;;;78.57;37.30;;;;;;;;;;5069169;28;20493;-48
2021/12/23 14:09:35;;;;;;;80.32;36.75;;;;;;;;;;5070061;28;20052;-47
2021/12/23 14:12:01;;;;;;;80.93;36.13;;;;;;;;;;5070575;28;20044;-49
2021/12/23 14:14:27;;;;;;;80.78;37.65;;;;;;;;;;5070272;28;20075;-45
2021/12/23 14:16:55;;;;;;;77.32;32.92;;;;;;;;;;5070227;28;20083;-44
2021/12/23 14:19:48;;;;;;;78.13;34.60;;;0.80;99.90;;;;;;5069945;28;20048;-46
2021/12/23 14:24:59;;;;;;;75.47;35.28;;;;;;;;;;5069955;28;20137;-46
2021/12/23 14:27:26;;;;;;;67.18;33.55;;;;;;;;;;5069488;28;20036;-45
2021/12/23 14:30:03;;;;;;;74.47;35.83;;;;;;;;;;5069652;28;20044;-49
2021/12/23 14:32:29;;;;;;;60.60;29.77;;;;;;;;;;5069668;28;20630;-45
2021/12/23 14:34:55;;;;;;;76.97;35.47;;;;;;;;;;5069767;28;20067;-48
2021/12/23 14:37:21;;;;;;;79.60;36.13;;;;;;;;;;5069818;28;20041;-47
2021/12/23 14:39:47;;;;;;;79.43;36.95;;;;;;;;;;5070177;28;20048;-45
2021/12/23 14:42:18;;;;;;;86.75;36.78;;;0.80;99.90;;;;;;5069721;28;20153;-44
2021/12/23 14:44:44;;;;;;;76.10;35.38;;;;;;;;;;5069856;28;20048;-43
2021/12/23 14:47:26;;;;;;;65.63;29.08;;;;;;;;;;5070011;28;20060;-48
2021/12/23 14:50:02;;;;;;;84.68;36.80;;;0.80;99.90;;;;;;5070160;28;20127;-44
2021/12/23 14:52:33;;;;;;;81.25;36.80;;;0.70;99.90;;;;;;5069913;28;20040;-48
2021/12/23 14:55:00;;;;;;;77.22;34.60;;;0.80;99.90;;;;;;5070225;28;20135;-44
2021/12/23 14:57:31;;;;;;;88.95;37.67;;;0.90;99.90;;;;;;5069658;28;20446;-48
2021/12/23 15:00:07;;;;;;;82.53;36.35;;;0.90;99.90;;;;;;5069733;28;20044;-48
2021/12/23 15:02:34;;;;;;;80.90;35.20;;;;;;;;;;5069906;28;20088;-47
2021/12/23 15:05:00;;;;;;;77.22;35.17;;;;;;;;;;5070008;28;20127;-47
2021/12/23 15:07:28;;;;;;;92.53;40.17;;;;;;;;;;5069649;28;20090;-46
2021/12/23 15:09:58;;;;;;;75.55;33.45;;;;;;;;;;5069609;28;20123;-46
2021/12/23 15:12:25;;;;;;;82.32;34.85;;;0.80;99.90;;;;;;5069466;28;20045;-46
2021/12/23 15:14:57;;;;;;;89.70;38.35;;;0.90;99.90;;;;;;5069148;28;20044;-44
2021/12/23 15:17:31;;;;;;;88.13;37.33;;;;;;;;;;5068827;28;20060;-47
2021/12/23 15:19:59;;;;;;;86.00;34.28;;;;;;;;;;5068972;28;20103;-48
2021/12/23 15:22:36;;;;;;;80.68;34.13;;;;;;;;;;5068952;28;20229;-48
2021/12/23 15:25:10;;;;;;;74.35;31.35;;;;;;;;;;5068993;28;20052;-45
2021/12/23 15:27:40;;;;;;;94.43;39.10;;;0.90;99.90;;;;;;5068670;28;20044;-47
2021/12/23 15:30:21;;;;;;;82.97;34.53;;;0.80;99.90;;;;;;5068666;28;20083;-44